KALS/ALS METAR and TAF weather

Enter ICAO airport designator
Station Type Date Time Source
KALS METAR 2020/04/06 13:52 UTC NOAA

KALS 061352Z AUTO 16004KT 10SM CLR 04/M10 A3005 RMK AO2 SLP131 T00391100


Station Type Date Time Source
KALS Decoded METAR 2020/04/06 13:52 UTC NOAA

SAN LUIS VALLEY REGIONAL, CO, United States (KALS) 37-26N 105-52W 2299M
Apr 06, 2020 - 09:52 AM EDT / 2020.04.06 1352 UTC
Wind: from the SSE (160 degrees) at 5 MPH (4 KT):0
Visibility: 10 mile(s):0
Sky conditions: clear
Temperature: 39.0 F (3.9 C)
Dew Point: 14.0 F (-10.0 C)
Relative Humidity: 35%
Pressure (altimeter): 30.05 in. Hg (1017 hPa)
ob: KALS 061352Z AUTO 16004KT 10SM CLR 04/M10 A3005 RMK AO2 SLP131 T00391100
cycle: 14

Station Type Date Time Source
KALS TAF 2020/04/06 12:46 UTC NOAA

TAF KALS 061143Z 0612/0712 26008KT P6SM SKC
FM061700 23015G25KT P6SM FEW250
FM062000 24020G32KT P6SM SCT250
FM070000 24015G25KT P6SM SCT250
FM070200 25008KT P6SM SCT250

Example: see airport list